createdAt,value
2018-01-29T00:09:01.155Z,15
2018-01-29T00:19:35.316Z,16
2018-01-29T00:29:18.170Z,17
2018-01-29T00:39:01.161Z,16
2018-01-29T00:49:01.294Z,15
2018-01-29T00:59:01.220Z,16
2018-01-29T01:09:01.149Z,12
2018-01-29T01:19:01.554Z,12
2018-01-29T01:29:01.216Z,13
2018-01-29T01:39:01.180Z,14
2018-01-29T01:49:01.345Z,12
2018-01-29T01:59:01.206Z,13
2018-01-29T02:09:01.305Z,14
2018-01-29T02:19:01.283Z,12
2018-01-29T02:29:01.229Z,10
2018-01-29T02:39:01.258Z,11
2018-01-29T02:49:01.184Z,9
2018-01-29T02:59:01.293Z,8
2018-01-29T03:09:01.327Z,8
2018-01-29T03:19:02.273Z,7
2018-01-29T03:29:01.343Z,7
2018-01-29T03:39:01.370Z,8
2018-01-29T03:49:01.401Z,7
2018-01-29T03:59:01.337Z,8
2018-01-29T04:09:01.341Z,10
2018-01-29T04:19:01.647Z,9
2018-01-29T04:29:01.322Z,9
2018-01-29T04:39:01.319Z,10
2018-01-29T04:49:01.302Z,10
2018-01-29T04:59:01.334Z,10
2018-01-29T05:09:01.519Z,9
2018-01-29T05:19:01.444Z,10
2018-01-29T05:29:01.560Z,8
2018-01-29T05:39:01.372Z,9
2018-01-29T05:49:01.440Z,8
2018-01-29T05:59:01.366Z,8
2018-01-29T06:09:01.505Z,8
2018-01-29T06:19:01.768Z,7
2018-01-29T06:29:01.415Z,8
2018-01-29T06:39:01.467Z,7
2018-01-29T06:49:01.475Z,7
2018-01-29T06:59:01.660Z,7
2018-01-29T07:09:01.463Z,7
2018-01-29T07:19:01.470Z,7
2018-01-29T07:29:01.583Z,8
2018-01-29T07:39:01.607Z,9
2018-01-29T07:49:01.693Z,8
2018-01-29T07:59:01.764Z,7
2018-01-29T08:09:01.746Z,7
2018-01-29T08:19:24.664Z,8
2018-01-29T08:29:01.826Z,11
2018-01-29T08:39:01.819Z,11
2018-01-29T08:49:02.042Z,10
2018-01-29T08:59:01.829Z,10
2018-01-29T09:09:01.781Z,9
2018-01-29T09:19:01.807Z,8
2018-01-29T09:29:01.783Z,8
2018-01-29T09:39:01.754Z,8
2018-01-29T09:49:01.772Z,7
2018-01-29T09:59:01.720Z,7
2018-01-29T10:09:01.715Z,7
2018-01-29T10:19:01.677Z,7
2018-01-29T10:29:01.741Z,6
2018-01-29T10:39:01.671Z,6
2018-01-29T10:49:01.787Z,7
2018-01-29T10:59:01.702Z,7
2018-01-29T11:09:01.757Z,9
2018-01-29T11:19:01.729Z,8
2018-01-29T11:29:01.863Z,6
2018-01-29T11:39:01.720Z,6
2018-01-29T11:49:01.858Z,8
2018-01-29T11:59:01.707Z,8
2018-01-29T12:09:01.752Z,7
2018-01-29T12:19:01.800Z,7
2018-01-29T12:29:02.020Z,6
2018-01-29T12:39:01.873Z,6
2018-01-29T12:49:01.856Z,4
2018-01-29T12:59:01.947Z,4
2018-01-29T13:09:01.789Z,5
2018-01-29T13:19:01.917Z,7
2018-01-29T13:29:01.943Z,8
2018-01-29T13:39:01.870Z,8
2018-01-29T13:49:01.921Z,7
2018-01-29T13:59:01.946Z,7
2018-01-29T14:09:01.834Z,6
2018-01-29T14:19:01.970Z,4
2018-01-29T14:29:01.906Z,4
2018-01-29T14:39:02.149Z,3
2018-01-29T14:49:02.043Z,4
2018-01-29T14:59:02.086Z,5
2018-01-29T15:09:01.949Z,6
2018-01-29T15:19:02.100Z,6
2018-01-29T15:29:01.944Z,7
2018-01-29T15:39:02.011Z,6
2018-01-29T15:49:01.978Z,8
2018-01-29T15:59:02.463Z,8
2018-01-29T16:09:01.960Z,10
2018-01-29T16:19:01.931Z,10
2018-01-29T16:29:02.114Z,8
2018-01-29T16:39:02.270Z,7
2018-01-29T16:49:02.147Z,6
2018-01-29T16:59:02.280Z,6
2018-01-29T17:09:02.132Z,5
2018-01-29T17:19:02.212Z,5
2018-01-29T17:29:02.925Z,5
2018-01-29T17:39:02.394Z,5
2018-01-29T17:49:02.108Z,6
2018-01-29T17:59:02.078Z,4
2018-01-29T18:09:02.036Z,5
2018-01-29T18:19:02.169Z,4
2018-01-29T18:29:02.123Z,2
2018-01-29T18:39:02.034Z,1
2018-01-29T18:49:02.092Z,2
2018-01-29T18:59:02.142Z,2
2018-01-29T19:09:02.170Z,2
2018-01-29T19:19:02.123Z,2
2018-01-29T19:29:02.132Z,2
2018-01-29T19:39:02.138Z,1
2018-01-29T19:49:02.222Z,0
2018-01-29T19:59:02.196Z,1
2018-01-29T20:09:02.241Z,1
2018-01-29T20:19:02.226Z,1
2018-01-29T20:29:02.548Z,1
2018-01-29T20:39:02.377Z,1
2018-01-29T20:49:02.367Z,1
2018-01-29T20:59:02.281Z,2
2018-01-29T21:09:02.227Z,2
2018-01-29T21:19:02.232Z,2
2018-01-29T21:29:02.348Z,2
2018-01-29T21:39:02.542Z,2
2018-01-29T21:49:02.389Z,1
2018-01-29T21:59:02.521Z,1
2018-01-29T22:09:02.414Z,2
2018-01-29T22:19:02.716Z,2
2018-01-29T22:29:02.351Z,2
2018-01-29T22:39:02.359Z,2
2018-01-29T22:49:02.826Z,2
2018-01-29T22:59:02.820Z,2
2018-01-29T23:09:02.466Z,2
2018-01-29T23:19:02.538Z,2
2018-01-29T23:29:04.091Z,2
2018-01-29T23:39:02.515Z,2
2018-01-29T23:49:02.405Z,3
2018-01-29T23:59:02.527Z,2
